Pagrindinis puslapis
METAR-TAF:

METAR-TAF

Oro uostai :

Ribeiran Pretas, San Paulas, Brazilija

platuma: 21-08S, ilguma: 047-47W, Aukštis: 549 m

Dabartinis oras

Ataskaita buvo paskelbta 18 minutes, ne 23:00 UTC
Ramus vėjas
Temperatūra 29°C
Drėgmė 29%
Slėgis 1014 hPa
Matomumas 10 km arba daugiau
nėra debesų žemiau 1500 m ir nėra kamuolinių lietaus debesų

METAR: SBRP 162300Z 00000KT CAVOK 29/09 Q1014

Laikas: 20:18 (23:18 UTC)

Prognozė

Ataskaita buvo paskelbta 7 valandos ir 12 minutes, ne 16:06 UTC
Prognozė galioja nuo 16 metu 18 UTC su 17 metu 06 UTC
Vėjas 5 kt iš Šiaurės
Matomumas 10 km arba daugiau
nėra debesų žemiau 1500 m ir nėra kamuolinių lietaus debesų
Tapsmas
nuo 16 metu 20 UTC su 16 metu 22 UTC
Vėjas 3 kt iš Rytų

TAF: SBRP 161606Z 1618/1706 35005KT CAVOK TX36/1618Z TN23/1705Z BECMG 1620/1622 08003KT RMK PHM

Orai ataskaitas ir orų prognozės (METAR, TAF).

turimą stotys yra geltonos ir raudonos taškus žemėlapyje.

Perkelti pele per norėdami pamatyti stoties vardą.

Tada spustelėkite, norėdami matyti oro stebėjimo ir prognozės.

Norėdami pakeisti žemėlapį: spustelėkite ant žalios mygtukų su juodo kryžiaus žemyn,; žalią mygtuką su brūkšneliu, jei norite nutolinti; arba žalių rodyklių gretimoms žemėlapius.


METAR-TAF: